sensor_id;sensor_type;location;lat;lon;timestamp;P1;durP1;ratioP1;P2;durP2;ratioP2
8702;SDS011;9002;42.708;23.186;2023-05-14T00:00:10;2.30;;;2.20;;
8702;SDS011;9002;42.708;23.186;2023-05-14T00:02:38;2.07;;;1.97;;
8702;SDS011;9002;42.708;23.186;2023-05-14T00:05:05;2.57;;;2.10;;
8702;SDS011;9002;42.708;23.186;2023-05-14T00:07:32;2.07;;;1.97;;
8702;SDS011;9002;42.708;23.186;2023-05-14T00:10:01;2.37;;;2.17;;
8702;SDS011;9002;42.708;23.186;2023-05-14T00:12:27;2.30;;;2.10;;
8702;SDS011;9002;42.708;23.186;2023-05-14T00:14:54;2.27;;;2.07;;
8702;SDS011;9002;42.708;23.186;2023-05-14T00:17:21;2.13;;;2.03;;
8702;SDS011;9002;42.708;23.186;2023-05-14T00:19:48;2.10;;;1.90;;
8702;SDS011;9002;42.708;23.186;2023-05-14T00:22:15;2.20;;;2.00;;
8702;SDS011;9002;42.708;23.186;2023-05-14T00:24:42;2.27;;;2.10;;
8702;SDS011;9002;42.708;23.186;2023-05-14T00:27:10;2.33;;;2.17;;
8702;SDS011;9002;42.708;23.186;2023-05-14T00:29:37;2.73;;;2.17;;
8702;SDS011;9002;42.708;23.186;2023-05-14T00:32:04;2.60;;;2.40;;
8702;SDS011;9002;42.708;23.186;2023-05-14T00:34:31;2.30;;;2.10;;
8702;SDS011;9002;42.708;23.186;2023-05-14T00:36:58;2.40;;;2.20;;
8702;SDS011;9002;42.708;23.186;2023-05-14T00:39:25;2.37;;;2.17;;
8702;SDS011;9002;42.708;23.186;2023-05-14T00:41:52;2.50;;;2.30;;
8702;SDS011;9002;42.708;23.186;2023-05-14T00:44:20;2.30;;;2.17;;
8702;SDS011;9002;42.708;23.186;2023-05-14T00:46:47;2.17;;;1.97;;
8702;SDS011;9002;42.708;23.186;2023-05-14T00:49:14;2.27;;;2.07;;
8702;SDS011;9002;42.708;23.186;2023-05-14T00:51:41;2.27;;;2.07;;
8702;SDS011;9002;42.708;23.186;2023-05-14T00:54:10;2.17;;;2.03;;
8702;SDS011;9002;42.708;23.186;2023-05-14T00:56:38;3.03;;;2.40;;
8702;SDS011;9002;42.708;23.186;2023-05-14T00:59:05;2.00;;;1.90;;
8702;SDS011;9002;42.708;23.186;2023-05-14T01:01:33;2.20;;;2.03;;
8702;SDS011;9002;42.708;23.186;2023-05-14T01:04:00;2.40;;;2.20;;
8702;SDS011;9002;42.708;23.186;2023-05-14T01:06:28;2.00;;;1.90;;
8702;SDS011;9002;42.708;23.186;2023-05-14T01:09:02;2.03;;;1.93;;
8702;SDS011;9002;42.708;23.186;2023-05-14T01:11:38;2.33;;;2.13;;
8702;SDS011;9002;42.708;23.186;2023-05-14T01:14:16;2.43;;;2.23;;
8702;SDS011;9002;42.708;23.186;2023-05-14T01:16:48;2.50;;;2.30;;
8702;SDS011;9002;42.708;23.186;2023-05-14T01:19:20;2.40;;;2.20;;
8702;SDS011;9002;42.708;23.186;2023-05-14T01:21:53;2.50;;;2.30;;
8702;SDS011;9002;42.708;23.186;2023-05-14T01:24:19;2.30;;;2.10;;
8702;SDS011;9002;42.708;23.186;2023-05-14T01:26:46;2.23;;;2.03;;
8702;SDS011;9002;42.708;23.186;2023-05-14T01:29:15;2.30;;;2.10;;
8702;SDS011;9002;42.708;23.186;2023-05-14T01:31:46;2.13;;;1.93;;
8702;SDS011;9002;42.708;23.186;2023-05-14T01:34:15;2.70;;;2.50;;
8702;SDS011;9002;42.708;23.186;2023-05-14T01:36:46;2.40;;;2.20;;
8702;SDS011;9002;42.708;23.186;2023-05-14T01:39:16;2.17;;;2.07;;
8702;SDS011;9002;42.708;23.186;2023-05-14T01:41:44;2.13;;;2.03;;
8702;SDS011;9002;42.708;23.186;2023-05-14T01:44:11;2.27;;;2.07;;
8702;SDS011;9002;42.708;23.186;2023-05-14T01:46:39;2.10;;;2.00;;
8702;SDS011;9002;42.708;23.186;2023-05-14T01:49:05;2.40;;;2.10;;
8702;SDS011;9002;42.708;23.186;2023-05-14T01:51:32;2.30;;;2.10;;
8702;SDS011;9002;42.708;23.186;2023-05-14T01:53:59;2.37;;;2.17;;
8702;SDS011;9002;42.708;23.186;2023-05-14T01:56:27;2.30;;;2.10;;
8702;SDS011;9002;42.708;23.186;2023-05-14T01:58:54;2.20;;;2.00;;
8702;SDS011;9002;42.708;23.186;2023-05-14T02:01:21;2.20;;;2.00;;
8702;SDS011;9002;42.708;23.186;2023-05-14T02:03:50;2.20;;;2.00;;
8702;SDS011;9002;42.708;23.186;2023-05-14T02:06:17;2.40;;;2.20;;
8702;SDS011;9002;42.708;23.186;2023-05-14T02:08:43;2.67;;;2.10;;
8702;SDS011;9002;42.708;23.186;2023-05-14T02:11:10;2.30;;;2.10;;
8702;SDS011;9002;42.708;23.186;2023-05-14T02:13:38;2.23;;;2.03;;
8702;SDS011;9002;42.708;23.186;2023-05-14T02:16:06;2.00;;;1.90;;
8702;SDS011;9002;42.708;23.186;2023-05-14T02:18:33;2.40;;;2.20;;
8702;SDS011;9002;42.708;23.186;2023-05-14T02:20:59;2.00;;;1.90;;
8702;SDS011;9002;42.708;23.186;2023-05-14T02:23:26;2.20;;;2.00;;
8702;SDS011;9002;42.708;23.186;2023-05-14T02:25:53;1.90;;;1.80;;
8702;SDS011;9002;42.708;23.186;2023-05-14T02:28:20;2.40;;;2.20;;
8702;SDS011;9002;42.708;23.186;2023-05-14T02:30:48;1.90;;;1.80;;
8702;SDS011;9002;42.708;23.186;2023-05-14T02:33:15;2.77;;;2.17;;
8702;SDS011;9002;42.708;23.186;2023-05-14T02:35:42;2.30;;;2.10;;
8702;SDS011;9002;42.708;23.186;2023-05-14T02:38:09;2.40;;;2.20;;
8702;SDS011;9002;42.708;23.186;2023-05-14T02:40:35;2.30;;;1.93;;
8702;SDS011;9002;42.708;23.186;2023-05-14T02:43:02;2.17;;;1.77;;
8702;SDS011;9002;42.708;23.186;2023-05-14T02:45:30;2.30;;;2.10;;
8702;SDS011;9002;42.708;23.186;2023-05-14T02:47:58;2.07;;;1.87;;
8702;SDS011;9002;42.708;23.186;2023-05-14T02:50:25;2.03;;;1.93;;
8702;SDS011;9002;42.708;23.186;2023-05-14T02:52:52;2.20;;;2.00;;
8702;SDS011;9002;42.708;23.186;2023-05-14T02:55:18;2.07;;;1.97;;
8702;SDS011;9002;42.708;23.186;2023-05-14T02:57:45;2.00;;;1.90;;
8702;SDS011;9002;42.708;23.186;2023-05-14T03:00:13;2.00;;;1.90;;
8702;SDS011;9002;42.708;23.186;2023-05-14T03:02:40;1.93;;;1.83;;
8702;SDS011;9002;42.708;23.186;2023-05-14T03:05:09;2.10;;;2.00;;
8702;SDS011;9002;42.708;23.186;2023-05-14T03:07:35;2.10;;;2.00;;
8702;SDS011;9002;42.708;23.186;2023-05-14T03:10:03;2.30;;;2.13;;
8702;SDS011;9002;42.708;23.186;2023-05-14T03:12:30;2.13;;;1.93;;
8702;SDS011;9002;42.708;23.186;2023-05-14T03:14:57;2.30;;;2.10;;
8702;SDS011;9002;42.708;23.186;2023-05-14T03:17:24;2.03;;;1.93;;
8702;SDS011;9002;42.708;23.186;2023-05-14T03:19:50;2.10;;;2.00;;
8702;SDS011;9002;42.708;23.186;2023-05-14T03:22:18;2.10;;;1.90;;
8702;SDS011;9002;42.708;23.186;2023-05-14T03:24:46;2.40;;;2.20;;
8702;SDS011;9002;42.708;23.186;2023-05-14T03:27:12;2.00;;;1.90;;
8702;SDS011;9002;42.708;23.186;2023-05-14T03:29:39;2.30;;;2.10;;
8702;SDS011;9002;42.708;23.186;2023-05-14T03:32:06;2.03;;;1.93;;
8702;SDS011;9002;42.708;23.186;2023-05-14T03:34:33;2.20;;;2.00;;
8702;SDS011;9002;42.708;23.186;2023-05-14T03:37:00;2.30;;;2.10;;
8702;SDS011;9002;42.708;23.186;2023-05-14T03:39:28;1.77;;;1.67;;
8702;SDS011;9002;42.708;23.186;2023-05-14T03:41:55;2.00;;;1.90;;
8702;SDS011;9002;42.708;23.186;2023-05-14T03:44:23;2.27;;;2.17;;
8702;SDS011;9002;42.708;23.186;2023-05-14T03:46:49;2.37;;;2.17;;
8702;SDS011;9002;42.708;23.186;2023-05-14T03:49:16;2.17;;;2.00;;
8702;SDS011;9002;42.708;23.186;2023-05-14T03:51:43;1.90;;;1.80;;
8702;SDS011;9002;42.708;23.186;2023-05-14T03:54:10;2.10;;;1.90;;
8702;SDS011;9002;42.708;23.186;2023-05-14T03:56:38;2.13;;;2.03;;
8702;SDS011;9002;42.708;23.186;2023-05-14T03:59:05;2.70;;;2.03;;
8702;SDS011;9002;42.708;23.186;2023-05-14T04:01:32;2.13;;;1.93;;
8702;SDS011;9002;42.708;23.186;2023-05-14T04:03:59;2.30;;;2.10;;
8702;SDS011;9002;42.708;23.186;2023-05-14T04:06:25;2.40;;;2.20;;
8702;SDS011;9002;42.708;23.186;2023-05-14T04:08:52;2.23;;;2.10;;
8702;SDS011;9002;42.708;23.186;2023-05-14T04:11:19;2.00;;;1.90;;
8702;SDS011;9002;42.708;23.186;2023-05-14T04:13:47;2.20;;;2.00;;
8702;SDS011;9002;42.708;23.186;2023-05-14T04:16:14;2.83;;;2.10;;
8702;SDS011;9002;42.708;23.186;2023-05-14T04:18:41;2.13;;;1.90;;
8702;SDS011;9002;42.708;23.186;2023-05-14T04:21:08;2.17;;;2.00;;
8702;SDS011;9002;42.708;23.186;2023-05-14T04:23:35;2.07;;;1.93;;
8702;SDS011;9002;42.708;23.186;2023-05-14T04:26:01;2.10;;;1.90;;
8702;SDS011;9002;42.708;23.186;2023-05-14T04:28:29;2.47;;;2.27;;
8702;SDS011;9002;42.708;23.186;2023-05-14T04:30:57;2.70;;;1.90;;
8702;SDS011;9002;42.708;23.186;2023-05-14T04:33:24;2.00;;;1.90;;
8702;SDS011;9002;42.708;23.186;2023-05-14T04:35:51;1.90;;;1.80;;
8702;SDS011;9002;42.708;23.186;2023-05-14T04:38:18;1.80;;;1.70;;
8702;SDS011;9002;42.708;23.186;2023-05-14T04:40:45;2.20;;;2.00;;
8702;SDS011;9002;42.708;23.186;2023-05-14T04:43:11;2.20;;;2.10;;
8702;SDS011;9002;42.708;23.186;2023-05-14T04:45:38;2.10;;;1.90;;
8702;SDS011;9002;42.708;23.186;2023-05-14T04:48:08;1.87;;;1.77;;
8702;SDS011;9002;42.708;23.186;2023-05-14T04:50:35;2.30;;;2.10;;
8702;SDS011;9002;42.708;23.186;2023-05-14T04:53:02;2.20;;;2.00;;
8702;SDS011;9002;42.708;23.186;2023-05-14T04:55:29;2.10;;;1.90;;
8702;SDS011;9002;42.708;23.186;2023-05-14T04:57:55;2.10;;;1.90;;
8702;SDS011;9002;42.708;23.186;2023-05-14T05:00:22;2.20;;;2.10;;
8702;SDS011;9002;42.708;23.186;2023-05-14T05:02:49;1.97;;;1.87;;
8702;SDS011;9002;42.708;23.186;2023-05-14T05:05:18;1.90;;;1.80;;
8702;SDS011;9002;42.708;23.186;2023-05-14T05:07:45;2.20;;;2.00;;
8702;SDS011;9002;42.708;23.186;2023-05-14T05:10:11;2.03;;;1.93;;
8702;SDS011;9002;42.708;23.186;2023-05-14T05:12:38;1.83;;;1.73;;
8702;SDS011;9002;42.708;23.186;2023-05-14T05:15:07;2.30;;;2.10;;
8702;SDS011;9002;42.708;23.186;2023-05-14T05:17:34;1.97;;;1.87;;
8702;SDS011;9002;42.708;23.186;2023-05-14T05:20:02;1.90;;;1.80;;
8702;SDS011;9002;42.708;23.186;2023-05-14T05:22:33;1.97;;;1.70;;
8702;SDS011;9002;42.708;23.186;2023-05-14T05:25:00;1.73;;;1.63;;
8702;SDS011;9002;42.708;23.186;2023-05-14T05:27:29;2.00;;;1.80;;
8702;SDS011;9002;42.708;23.186;2023-05-14T05:29:56;1.90;;;1.80;;
8702;SDS011;9002;42.708;23.186;2023-05-14T05:32:23;2.30;;;2.10;;
8702;SDS011;9002;42.708;23.186;2023-05-14T05:34:50;2.20;;;2.00;;
8702;SDS011;9002;42.708;23.186;2023-05-14T05:37:17;2.67;;;1.80;;
8702;SDS011;9002;42.708;23.186;2023-05-14T05:39:45;1.80;;;1.70;;
8702;SDS011;9002;42.708;23.186;2023-05-14T05:42:12;1.90;;;1.80;;
8702;SDS011;9002;42.708;23.186;2023-05-14T05:44:39;1.77;;;1.67;;
8702;SDS011;9002;42.708;23.186;2023-05-14T05:47:06;2.03;;;1.93;;
8702;SDS011;9002;42.708;23.186;2023-05-14T05:49:32;2.10;;;2.00;;
8702;SDS011;9002;42.708;23.186;2023-05-14T05:52:01;1.97;;;1.87;;
8702;SDS011;9002;42.708;23.186;2023-05-14T05:54:28;1.97;;;1.80;;
8702;SDS011;9002;42.708;23.186;2023-05-14T05:56:57;2.00;;;1.90;;
8702;SDS011;9002;42.708;23.186;2023-05-14T05:59:24;1.97;;;1.87;;
8702;SDS011;9002;42.708;23.186;2023-05-14T06:01:51;2.10;;;2.00;;
8702;SDS011;9002;42.708;23.186;2023-05-14T06:04:18;1.90;;;1.80;;
8702;SDS011;9002;42.708;23.186;2023-05-14T06:06:45;1.87;;;1.77;;
8702;SDS011;9002;42.708;23.186;2023-05-14T06:09:30;1.97;;;1.83;;
8702;SDS011;9002;42.708;23.186;2023-05-14T06:11:58;2.00;;;1.90;;
8702;SDS011;9002;42.708;23.186;2023-05-14T06:14:25;2.10;;;2.00;;
8702;SDS011;9002;42.708;23.186;2023-05-14T06:16:52;1.80;;;1.70;;
8702;SDS011;9002;42.708;23.186;2023-05-14T06:19:19;2.17;;;1.70;;
8702;SDS011;9002;42.708;23.186;2023-05-14T06:21:46;1.87;;;1.77;;
8702;SDS011;9002;42.708;23.186;2023-05-14T06:24:12;1.90;;;1.80;;
8702;SDS011;9002;42.708;23.186;2023-05-14T06:26:40;1.87;;;1.77;;
8702;SDS011;9002;42.708;23.186;2023-05-14T06:29:08;2.20;;;1.70;;
8702;SDS011;9002;42.708;23.186;2023-05-14T06:31:35;1.93;;;1.73;;
8702;SDS011;9002;42.708;23.186;2023-05-14T06:34:02;2.00;;;1.90;;
8702;SDS011;9002;42.708;23.186;2023-05-14T06:36:29;1.90;;;1.80;;
8702;SDS011;9002;42.708;23.186;2023-05-14T06:38:56;1.70;;;1.60;;
8702;SDS011;9002;42.708;23.186;2023-05-14T06:41:23;2.00;;;1.90;;
8702;SDS011;9002;42.708;23.186;2023-05-14T06:43:50;1.80;;;1.70;;
8702;SDS011;9002;42.708;23.186;2023-05-14T06:46:18;2.13;;;1.93;;
8702;SDS011;9002;42.708;23.186;2023-05-14T06:48:45;1.93;;;1.80;;
8702;SDS011;9002;42.708;23.186;2023-05-14T06:51:12;1.80;;;1.70;;
8702;SDS011;9002;42.708;23.186;2023-05-14T06:53:39;1.80;;;1.70;;
8702;SDS011;9002;42.708;23.186;2023-05-14T06:56:05;1.97;;;1.80;;
8702;SDS011;9002;42.708;23.186;2023-05-14T06:58:33;1.93;;;1.83;;
8702;SDS011;9002;42.708;23.186;2023-05-14T07:00:59;1.90;;;1.80;;
8702;SDS011;9002;42.708;23.186;2023-05-14T07:03:28;1.80;;;1.70;;
8702;SDS011;9002;42.708;23.186;2023-05-14T07:05:54;1.93;;;1.73;;
8702;SDS011;9002;42.708;23.186;2023-05-14T07:08:21;2.00;;;1.90;;
8702;SDS011;9002;42.708;23.186;2023-05-14T07:10:48;1.83;;;1.73;;
8702;SDS011;9002;42.708;23.186;2023-05-14T07:13:15;2.10;;;1.90;;
8702;SDS011;9002;42.708;23.186;2023-05-14T07:15:42;1.50;;;1.40;;
8702;SDS011;9002;42.708;23.186;2023-05-14T07:18:08;1.80;;;1.70;;
8702;SDS011;9002;42.708;23.186;2023-05-14T07:20:37;2.10;;;1.90;;
8702;SDS011;9002;42.708;23.186;2023-05-14T07:23:03;1.93;;;1.80;;
8702;SDS011;9002;42.708;23.186;2023-05-14T07:25:31;2.23;;;2.03;;
8702;SDS011;9002;42.708;23.186;2023-05-14T07:27:58;2.10;;;1.90;;
8702;SDS011;9002;42.708;23.186;2023-05-14T07:30:24;1.93;;;1.83;;
8702;SDS011;9002;42.708;23.186;2023-05-14T07:32:51;1.90;;;1.80;;
8702;SDS011;9002;42.708;23.186;2023-05-14T07:35:18;1.73;;;1.63;;
8702;SDS011;9002;42.708;23.186;2023-05-14T07:37:46;2.30;;;2.20;;
8702;SDS011;9002;42.708;23.186;2023-05-14T07:40:13;1.83;;;1.73;;
8702;SDS011;9002;42.708;23.186;2023-05-14T07:42:40;1.90;;;1.80;;
8702;SDS011;9002;42.708;23.186;2023-05-14T07:45:08;2.20;;;2.00;;
8702;SDS011;9002;42.708;23.186;2023-05-14T07:47:35;1.83;;;1.73;;
8702;SDS011;9002;42.708;23.186;2023-05-14T07:50:02;1.80;;;1.70;;
8702;SDS011;9002;42.708;23.186;2023-05-14T07:52:29;2.10;;;1.97;;
8702;SDS011;9002;42.708;23.186;2023-05-14T07:54:57;1.90;;;1.80;;
8702;SDS011;9002;42.708;23.186;2023-05-14T07:57:25;2.47;;;1.83;;
8702;SDS011;9002;42.708;23.186;2023-05-14T07:59:52;1.87;;;1.77;;
8702;SDS011;9002;42.708;23.186;2023-05-14T08:02:19;2.07;;;1.87;;
8702;SDS011;9002;42.708;23.186;2023-05-14T08:04:46;1.90;;;1.80;;
8702;SDS011;9002;42.708;23.186;2023-05-14T08:07:13;2.00;;;1.90;;
8702;SDS011;9002;42.708;23.186;2023-05-14T08:09:39;2.10;;;1.90;;
8702;SDS011;9002;42.708;23.186;2023-05-14T08:12:08;2.30;;;2.10;;
8702;SDS011;9002;42.708;23.186;2023-05-14T08:14:35;2.10;;;1.90;;
8702;SDS011;9002;42.708;23.186;2023-05-14T08:17:02;2.07;;;1.83;;
8702;SDS011;9002;42.708;23.186;2023-05-14T08:19:29;1.97;;;1.87;;
8702;SDS011;9002;42.708;23.186;2023-05-14T08:21:55;1.80;;;1.70;;
8702;SDS011;9002;42.708;23.186;2023-05-14T08:24:22;2.00;;;1.87;;
8702;SDS011;9002;42.708;23.186;2023-05-14T08:26:49;2.10;;;1.90;;
8702;SDS011;9002;42.708;23.186;2023-05-14T08:29:17;1.90;;;1.80;;
8702;SDS011;9002;42.708;23.186;2023-05-14T08:31:44;1.80;;;1.70;;
8702;SDS011;9002;42.708;23.186;2023-05-14T08:34:11;1.90;;;1.80;;
8702;SDS011;9002;42.708;23.186;2023-05-14T08:36:38;2.00;;;1.87;;
8702;SDS011;9002;42.708;23.186;2023-05-14T08:39:05;2.07;;;1.87;;
8702;SDS011;9002;42.708;23.186;2023-05-14T08:41:32;1.93;;;1.83;;
8702;SDS011;9002;42.708;23.186;2023-05-14T08:44:01;2.10;;;2.00;;
8702;SDS011;9002;42.708;23.186;2023-05-14T08:46:34;2.00;;;1.80;;
8702;SDS011;9002;42.708;23.186;2023-05-14T08:49:04;2.30;;;2.10;;
8702;SDS011;9002;42.708;23.186;2023-05-14T08:51:40;2.00;;;1.80;;
8702;SDS011;9002;42.708;23.186;2023-05-14T08:54:08;2.10;;;1.90;;
8702;SDS011;9002;42.708;23.186;2023-05-14T08:56:38;2.40;;;2.20;;
8702;SDS011;9002;42.708;23.186;2023-05-14T08:59:07;1.80;;;1.70;;
8702;SDS011;9002;42.708;23.186;2023-05-14T09:01:37;1.83;;;1.60;;
8702;SDS011;9002;42.708;23.186;2023-05-14T09:04:05;2.23;;;1.90;;
8702;SDS011;9002;42.708;23.186;2023-05-14T09:06:33;2.00;;;1.90;;
8702;SDS011;9002;42.708;23.186;2023-05-14T09:09:02;2.10;;;2.00;;
8702;SDS011;9002;42.708;23.186;2023-05-14T09:11:29;2.00;;;1.80;;
8702;SDS011;9002;42.708;23.186;2023-05-14T09:13:56;2.10;;;2.00;;
8702;SDS011;9002;42.708;23.186;2023-05-14T09:16:22;2.20;;;2.00;;
8702;SDS011;9002;42.708;23.186;2023-05-14T09:18:52;2.27;;;2.10;;
8702;SDS011;9002;42.708;23.186;2023-05-14T09:21:20;1.93;;;1.83;;
8702;SDS011;9002;42.708;23.186;2023-05-14T09:23:47;1.93;;;1.83;;
8702;SDS011;9002;42.708;23.186;2023-05-14T09:26:22;2.10;;;2.00;;
8702;SDS011;9002;42.708;23.186;2023-05-14T09:28:52;2.00;;;1.90;;
8702;SDS011;9002;42.708;23.186;2023-05-14T09:31:20;2.10;;;1.90;;
8702;SDS011;9002;42.708;23.186;2023-05-14T09:33:48;2.10;;;2.00;;
8702;SDS011;9002;42.708;23.186;2023-05-14T09:36:17;1.93;;;1.83;;
8702;SDS011;9002;42.708;23.186;2023-05-14T09:38:44;2.20;;;2.00;;
8702;SDS011;9002;42.708;23.186;2023-05-14T09:41:11;2.00;;;1.80;;
8702;SDS011;9002;42.708;23.186;2023-05-14T09:43:38;2.10;;;2.00;;
8702;SDS011;9002;42.708;23.186;2023-05-14T09:46:05;1.93;;;1.83;;
8702;SDS011;9002;42.708;23.186;2023-05-14T09:48:32;2.07;;;1.87;;
8702;SDS011;9002;42.708;23.186;2023-05-14T09:50:58;2.00;;;1.90;;
8702;SDS011;9002;42.708;23.186;2023-05-14T09:53:27;1.90;;;1.80;;
8702;SDS011;9002;42.708;23.186;2023-05-14T09:55:55;2.10;;;1.90;;
8702;SDS011;9002;42.708;23.186;2023-05-14T09:58:22;1.93;;;1.83;;
8702;SDS011;9002;42.708;23.186;2023-05-14T10:00:48;2.03;;;1.93;;
8702;SDS011;9002;42.708;23.186;2023-05-14T10:03:17;2.00;;;1.87;;
8702;SDS011;9002;42.708;23.186;2023-05-14T10:05:45;1.83;;;1.73;;
8702;SDS011;9002;42.708;23.186;2023-05-14T10:08:17;1.93;;;1.83;;
8702;SDS011;9002;42.708;23.186;2023-05-14T10:10:48;2.07;;;1.97;;
8702;SDS011;9002;42.708;23.186;2023-05-14T10:13:18;2.10;;;1.90;;
8702;SDS011;9002;42.708;23.186;2023-05-14T10:15:47;1.83;;;1.70;;
8702;SDS011;9002;42.708;23.186;2023-05-14T10:18:18;2.10;;;1.90;;
8702;SDS011;9002;42.708;23.186;2023-05-14T10:20:46;2.10;;;2.00;;
8702;SDS011;9002;42.708;23.186;2023-05-14T10:23:16;2.17;;;1.97;;
8702;SDS011;9002;42.708;23.186;2023-05-14T10:25:43;2.37;;;2.20;;
8702;SDS011;9002;42.708;23.186;2023-05-14T10:28:12;2.37;;;2.17;;
8702;SDS011;9002;42.708;23.186;2023-05-14T10:30:42;2.30;;;2.10;;
8702;SDS011;9002;42.708;23.186;2023-05-14T10:33:11;2.10;;;2.00;;
8702;SDS011;9002;42.708;23.186;2023-05-14T10:35:50;1.90;;;1.80;;
8702;SDS011;9002;42.708;23.186;2023-05-14T10:40:55;2.20;;;2.10;;
8702;SDS011;9002;42.708;23.186;2023-05-14T10:43:28;2.10;;;1.90;;
8702;SDS011;9002;42.708;23.186;2023-05-14T10:45:56;2.10;;;1.97;;
8702;SDS011;9002;42.708;23.186;2023-05-14T10:48:23;2.30;;;2.10;;
8702;SDS011;9002;42.708;23.186;2023-05-14T10:50:51;1.90;;;1.80;;
8702;SDS011;9002;42.708;23.186;2023-05-14T10:53:18;2.20;;;2.00;;
8702;SDS011;9002;42.708;23.186;2023-05-14T10:55:46;2.27;;;2.07;;
8702;SDS011;9002;42.708;23.186;2023-05-14T10:58:13;1.97;;;1.87;;
8702;SDS011;9002;42.708;23.186;2023-05-14T11:00:42;2.13;;;1.93;;
8702;SDS011;9002;42.708;23.186;2023-05-14T11:03:14;1.90;;;1.80;;
8702;SDS011;9002;42.708;23.186;2023-05-14T11:05:41;2.27;;;2.07;;
8702;SDS011;9002;42.708;23.186;2023-05-14T11:08:09;2.83;;;2.17;;
8702;SDS011;9002;42.708;23.186;2023-05-14T11:10:37;2.20;;;2.00;;
8702;SDS011;9002;42.708;23.186;2023-05-14T11:13:04;2.00;;;1.90;;
8702;SDS011;9002;42.708;23.186;2023-05-14T11:15:32;2.37;;;2.17;;
8702;SDS011;9002;42.708;23.186;2023-05-14T11:18:00;2.10;;;1.90;;
8702;SDS011;9002;42.708;23.186;2023-05-14T11:20:27;2.20;;;2.00;;
8702;SDS011;9002;42.708;23.186;2023-05-14T11:22:54;2.00;;;1.90;;
8702;SDS011;9002;42.708;23.186;2023-05-14T11:25:20;2.20;;;2.10;;
8702;SDS011;9002;42.708;23.186;2023-05-14T11:27:49;2.10;;;2.00;;
8702;SDS011;9002;42.708;23.186;2023-05-14T11:30:20;2.03;;;1.93;;
8702;SDS011;9002;42.708;23.186;2023-05-14T11:32:47;2.40;;;2.20;;
8702;SDS011;9002;42.708;23.186;2023-05-14T11:35:16;1.93;;;1.83;;
8702;SDS011;9002;42.708;23.186;2023-05-14T11:37:48;1.90;;;1.80;;
8702;SDS011;9002;42.708;23.186;2023-05-14T11:40:16;1.80;;;1.70;;
8702;SDS011;9002;42.708;23.186;2023-05-14T11:42:43;1.83;;;1.73;;
8702;SDS011;9002;42.708;23.186;2023-05-14T11:45:10;1.80;;;1.70;;
8702;SDS011;9002;42.708;23.186;2023-05-14T11:47:39;2.20;;;2.00;;
8702;SDS011;9002;42.708;23.186;2023-05-14T11:50:06;1.80;;;1.70;;
8702;SDS011;9002;42.708;23.186;2023-05-14T11:52:37;2.23;;;2.00;;
8702;SDS011;9002;42.708;23.186;2023-05-14T11:55:06;2.53;;;2.10;;
8702;SDS011;9002;42.708;23.186;2023-05-14T11:57:36;1.97;;;1.80;;
8702;SDS011;9002;42.708;23.186;2023-05-14T12:00:06;2.17;;;2.00;;
8702;SDS011;9002;42.708;23.186;2023-05-14T12:02:37;2.40;;;2.20;;
8702;SDS011;9002;42.708;23.186;2023-05-14T12:05:05;2.30;;;2.10;;
8702;SDS011;9002;42.708;23.186;2023-05-14T12:07:33;2.07;;;1.70;;
8702;SDS011;9002;42.708;23.186;2023-05-14T12:10:01;2.20;;;2.00;;
8702;SDS011;9002;42.708;23.186;2023-05-14T12:12:33;1.90;;;1.70;;
8702;SDS011;9002;42.708;23.186;2023-05-14T12:15:01;2.07;;;1.93;;
8702;SDS011;9002;42.708;23.186;2023-05-14T12:17:36;2.30;;;2.10;;
8702;SDS011;9002;42.708;23.186;2023-05-14T12:20:03;1.90;;;1.80;;
8702;SDS011;9002;42.708;23.186;2023-05-14T12:22:34;2.27;;;2.07;;
8702;SDS011;9002;42.708;23.186;2023-05-14T12:25:03;1.90;;;1.80;;
8702;SDS011;9002;42.708;23.186;2023-05-14T12:27:30;2.00;;;1.90;;
8702;SDS011;9002;42.708;23.186;2023-05-14T12:29:57;2.10;;;2.00;;
8702;SDS011;9002;42.708;23.186;2023-05-14T12:32:26;2.33;;;2.13;;
8702;SDS011;9002;42.708;23.186;2023-05-14T12:34:53;2.13;;;2.03;;
8702;SDS011;9002;42.708;23.186;2023-05-14T12:37:20;2.20;;;2.00;;
8702;SDS011;9002;42.708;23.186;2023-05-14T12:39:46;2.00;;;1.90;;
8702;SDS011;9002;42.708;23.186;2023-05-14T12:42:15;2.33;;;2.13;;
8702;SDS011;9002;42.708;23.186;2023-05-14T12:44:42;2.10;;;1.90;;
8702;SDS011;9002;42.708;23.186;2023-05-14T12:47:08;1.97;;;1.87;;
8702;SDS011;9002;42.708;23.186;2023-05-14T12:49:35;2.17;;;2.03;;
8702;SDS011;9002;42.708;23.186;2023-05-14T12:52:02;2.00;;;1.90;;
8702;SDS011;9002;42.708;23.186;2023-05-14T12:54:29;2.13;;;2.00;;
8702;SDS011;9002;42.708;23.186;2023-05-14T12:56:56;2.43;;;2.03;;
8702;SDS011;9002;42.708;23.186;2023-05-14T12:59:25;2.13;;;1.93;;
8702;SDS011;9002;42.708;23.186;2023-05-14T13:01:52;1.93;;;1.83;;
8702;SDS011;9002;42.708;23.186;2023-05-14T13:04:18;2.50;;;2.30;;
8702;SDS011;9002;42.708;23.186;2023-05-14T13:06:45;2.10;;;2.00;;
8702;SDS011;9002;42.708;23.186;2023-05-14T13:09:12;2.07;;;1.97;;
8702;SDS011;9002;42.708;23.186;2023-05-14T13:11:39;1.90;;;1.80;;
8702;SDS011;9002;42.708;23.186;2023-05-14T13:14:06;2.10;;;1.90;;
8702;SDS011;9002;42.708;23.186;2023-05-14T13:16:34;2.03;;;1.90;;
8702;SDS011;9002;42.708;23.186;2023-05-14T13:19:01;2.33;;;2.13;;
8702;SDS011;9002;42.708;23.186;2023-05-14T13:21:28;2.17;;;2.07;;
8702;SDS011;9002;42.708;23.186;2023-05-14T13:23:55;2.50;;;2.30;;
8702;SDS011;9002;42.708;23.186;2023-05-14T13:26:22;2.27;;;2.07;;
8702;SDS011;9002;42.708;23.186;2023-05-14T13:28:50;2.47;;;2.27;;
8702;SDS011;9002;42.708;23.186;2023-05-14T13:31:17;2.60;;;2.40;;
8702;SDS011;9002;42.708;23.186;2023-05-14T13:33:45;2.43;;;2.23;;
8702;SDS011;9002;42.708;23.186;2023-05-14T13:36:13;2.30;;;2.10;;
8702;SDS011;9002;42.708;23.186;2023-05-14T13:38:40;2.53;;;2.33;;
8702;SDS011;9002;42.708;23.186;2023-05-14T13:41:07;3.03;;;2.73;;
8702;SDS011;9002;42.708;23.186;2023-05-14T13:43:34;2.50;;;2.30;;
8702;SDS011;9002;42.708;23.186;2023-05-14T13:46:01;2.57;;;2.37;;
8702;SDS011;9002;42.708;23.186;2023-05-14T13:48:29;2.67;;;2.40;;
8702;SDS011;9002;42.708;23.186;2023-05-14T13:50:57;2.60;;;2.40;;
8702;SDS011;9002;42.708;23.186;2023-05-14T13:53:24;2.40;;;2.30;;
8702;SDS011;9002;42.708;23.186;2023-05-14T13:55:51;2.53;;;2.33;;
8702;SDS011;9002;42.708;23.186;2023-05-14T13:58:20;2.83;;;2.63;;
8702;SDS011;9002;42.708;23.186;2023-05-14T14:00:48;2.63;;;2.43;;
8702;SDS011;9002;42.708;23.186;2023-05-14T14:03:15;2.60;;;2.40;;
8702;SDS011;9002;42.708;23.186;2023-05-14T14:05:41;2.50;;;2.30;;
8702;SDS011;9002;42.708;23.186;2023-05-14T14:08:10;2.53;;;2.33;;
8702;SDS011;9002;42.708;23.186;2023-05-14T14:10:37;2.57;;;2.37;;
8702;SDS011;9002;42.708;23.186;2023-05-14T14:13:05;2.47;;;2.27;;
8702;SDS011;9002;42.708;23.186;2023-05-14T14:15:32;2.50;;;2.30;;
8702;SDS011;9002;42.708;23.186;2023-05-14T14:17:59;2.40;;;2.20;;
8702;SDS011;9002;42.708;23.186;2023-05-14T14:20:25;2.43;;;2.23;;
8702;SDS011;9002;42.708;23.186;2023-05-14T14:22:53;2.50;;;2.30;;
8702;SDS011;9002;42.708;23.186;2023-05-14T14:25:21;2.70;;;2.50;;
8702;SDS011;9002;42.708;23.186;2023-05-14T14:27:48;2.67;;;2.47;;
8702;SDS011;9002;42.708;23.186;2023-05-14T14:30:15;2.70;;;2.50;;
8702;SDS011;9002;42.708;23.186;2023-05-14T14:32:43;2.60;;;2.40;;
8702;SDS011;9002;42.708;23.186;2023-05-14T14:35:11;2.70;;;2.50;;
8702;SDS011;9002;42.708;23.186;2023-05-14T14:37:38;2.87;;;2.67;;
8702;SDS011;9002;42.708;23.186;2023-05-14T14:40:07;2.60;;;2.40;;
8702;SDS011;9002;42.708;23.186;2023-05-14T14:42:36;2.40;;;2.20;;
8702;SDS011;9002;42.708;23.186;2023-05-14T14:45:04;2.50;;;2.30;;
8702;SDS011;9002;42.708;23.186;2023-05-14T14:47:31;2.53;;;2.33;;
8702;SDS011;9002;42.708;23.186;2023-05-14T14:49:58;3.40;;;2.53;;
8702;SDS011;9002;42.708;23.186;2023-05-14T14:52:25;2.83;;;2.63;;
8702;SDS011;9002;42.708;23.186;2023-05-14T14:54:52;2.43;;;2.23;;
8702;SDS011;9002;42.708;23.186;2023-05-14T14:57:19;2.77;;;2.57;;
8702;SDS011;9002;42.708;23.186;2023-05-14T14:59:47;2.80;;;2.60;;
8702;SDS011;9002;42.708;23.186;2023-05-14T15:02:14;2.73;;;2.53;;
8702;SDS011;9002;42.708;23.186;2023-05-14T15:04:41;2.80;;;2.60;;